Aviation Digital Data Service (ADDS)

Output produced by METARs form (0942 UTC 07 December 2022)
found at http://www.aviationweather.gov/metar/data/
 
METAR text: KILE 070929Z AUTO 17008KT 10SM OVC017 21/19 A3010 RMK AO2
Conditions at: KILE (KILLEEN MUNI , TX, US) observed 0929 UTC 07 December 2022
Temperature: 21.0°C (70°F)
Dewpoint: 19.0°C (66°F) [RH = 88%]
Pressure (altimeter): 30.10 inches Hg (1019.4 mb)
Winds: from the S (170 degrees) at 9 MPH (8 knots; 4.1 m/s)
Visibility: 10 or more miles (16+ km)
Ceiling: 1700 feet AGL
Clouds: overcast cloud deck at 1700 feet AGL
Weather: automated observation with no human augmentation;
there may or may not be significant weather present at this time

METAR text: KILE 070856Z AUTO 18008KT 10SM OVC013 22/20 A3010 RMK AO2 SLP185 T02170200 53009
Conditions at: KILE (KILLEEN MUNI , TX, US) observed 0856 UTC 07 December 2022
Temperature: 21.7°C (71°F)
Dewpoint: 20.0°C (68°F) [RH = 90%]
Pressure (altimeter): 30.10 inches Hg (1019.4 mb)
[Sea-level pressure: 1018.5 mb]
Winds: from the S (180 degrees) at 9 MPH (8 knots; 4.1 m/s)
Visibility: 10 or more miles (16+ km)
Ceiling: 1300 feet AGL
Clouds: overcast cloud deck at 1300 feet AGL
Weather: automated observation with no human augmentation;
there may or may not be significant weather present at this time